Aérodrome :
LOGIN :

S'inscrire | Disclaimer

   EN    FR    IT 

 










Légende :    VFR   VFR Marginal   IFR   IFR Intensif   IFR Très Intensif
Visi : 
Plafond : 
>= 8 km
>= 3000ft
5 à 8 km
1000 à 3000 ft
1500m à 5 km
500 à 1000 ft
800 à 1500m
200 à 500 ft
< 800m
< 200 ft
Symboles :   Orages  Brouillard  Fortes neiges  Fortes précipitations  Vent > 20 kt
SIGMETs :   Divers  Orages  Givrage  Turbulence  Onde Orograph.  Cendres Volcan.







- Altitude de l'aérodrome : 2096 ft
- Code IATA : AUR
- Voir les cartes d'approche


LFLW - Aurillac

DERNIER METAR :
  • 170530Z AUTO 23007KT 190V250 6000 BKN005/// OVC009/// ///TCU 04/03 Q1013 TEMPO 4000 -RA BR BECMG BKN005 OVC010

METARs EXPIRÉS :
  • 170500Z AUTO 22007KT 190V250 7000 BKN006 OVC010 04/03 Q1013
  • 170430Z AUTO 21008KT 6000 BKN008/// BKN017/// OVC023/// ///TCU 04/03 Q1013
  • 170400Z AUTO 22009KT 5000 -RADZ BR BKN012/// OVC017/// ///TCU 04/03 Q1013
  • 170330Z AUTO 22007KT 9000 -RA BKN016/// OVC023/// ///TCU 05/03 Q1014
  • 170300Z AUTO 19004KT 9999 BKN020/// OVC028/// ///TCU 05/03 Q1014
  • 170230Z AUTO VRB02KT 9999 -RA BKN023/// BKN030/// OVC036/// ///TCU 05/02 Q1014

TAF TAF LFLW
Valide du 17 à 06h jusqu'au 17 à 15h UTC


170500Z 1706/1715 22008KT 8000 BKN005 OVC010
TEMPO 1706/1709 4000 -RA BR
BECMG 1709/1712 33012KT BKN010 OVC015
PROB40
TEMPO 1712/1715 4000 SHRA SCT013TCU
Pas de NOTAMs connus pour ce terrain.



MET'MAP, la Météo Aéronautique d'un coup d'oeil ! - Copyright ORBIFLY Décembre 2007 - Disclaimer

ORBIFLY MET'MAP TEAM :

Programmation & Développement : Alexandra Zaïnal
Conception & Développement : Baudouin d'Aumeries
Co-Programmation & Développement : Marc-Olivier Méhu
Soutien technique & logistique : Manuel Goepfert

Contact : metmap@orbifly.com




SOURCES & CREDITS :

   NOAA